Time;durP1;ratioP1;P1;durP2;ratioP2;P2;SDS_P1;SDS_P2;PMS_P1;PMS_P2;Temp;Humidity;BMP_temperature;BMP_pressure;BME280_temperature;BME280_humidity;BME280_pressure;Samples;Min_cycle;Max_cycle;Signal;HPM_P1;HPM_P2
2021/08/08 00:01:35;;;;;;;2.85;2.00;;;18.00;99.90;;;;;;5052343;28;20071;-46
2021/08/08 00:04:00;;;;;;;4.65;2.50;;;18.00;99.90;;;;;;5051728;28;20021;-49
2021/08/08 00:06:26;;;;;;;5.85;2.60;;;18.00;99.90;;;;;;5052479;28;20382;-46
2021/08/08 00:08:51;;;;;;;5.47;2.17;;;18.00;99.90;;;;;;5052041;28;20025;-47
2021/08/08 00:11:17;;;;;;;3.00;2.30;;;18.00;99.90;;;;;;5069007;28;20498;-47
2021/08/08 00:13:42;;;;;;;4.53;2.35;;;18.00;99.90;;;;;;5071259;28;20040;-46
2021/08/08 00:16:08;;;;;;;3.75;1.85;;;18.00;99.90;;;;;;5072195;28;20432;-46
2021/08/08 00:18:33;;;;;;;5.82;2.00;;;18.00;99.90;;;;;;5071905;28;20111;-45
2021/08/08 00:20:59;;;;;;;3.13;1.90;;;18.00;99.90;;;;;;5059770;28;20378;-46
2021/08/08 00:23:24;;;;;;;3.90;2.35;;;18.10;99.90;;;;;;5050062;28;20029;-48
2021/08/08 00:25:50;;;;;;;2.60;1.95;;;18.10;99.90;;;;;;5052473;28;20017;-48
2021/08/08 00:28:16;;;;;;;3.67;1.80;;;18.10;99.90;;;;;;5050716;28;20374;-47
2021/08/08 00:30:41;;;;;;;3.80;1.83;;;18.10;99.90;;;;;;5070764;28;20120;-47
2021/08/08 00:33:07;;;;;;;2.35;2.00;;;18.10;99.90;;;;;;5071694;28;20031;-46
2021/08/08 00:35:33;;;;;;;6.47;2.47;;;18.10;99.90;;;;;;5069664;28;20066;-47
2021/08/08 00:37:58;;;;;;;3.20;2.10;;;18.10;99.90;;;;;;5070240;28;20017;-49
2021/08/08 00:40:24;;;;;;;2.95;1.90;;;18.10;99.90;;;;;;5057444;28;20598;-47
2021/08/08 00:42:49;;;;;;;5.25;1.90;;;18.10;99.90;;;;;;5051686;28;20033;-47
2021/08/08 00:45:17;;;;;;;3.20;1.67;;;18.10;99.90;;;;;;5051026;28;20036;-46
2021/08/08 00:47:44;;;;;;;3.20;1.83;;;18.10;99.90;;;;;;5051397;28;20082;-50
2021/08/08 00:50:11;;;;;;;3.72;1.80;;;18.00;99.90;;;;;;5060282;28;20052;-47
2021/08/08 00:52:37;;;;;;;3.63;2.10;;;18.00;99.90;;;;;;5069949;28;20251;-47
2021/08/08 00:55:04;;;;;;;5.93;2.03;;;18.00;99.90;;;;;;5070484;28;20081;-47
2021/08/08 00:57:29;;;;;;;5.05;1.90;;;18.00;99.90;;;;;;5071214;28;20493;-46
2021/08/08 00:59:55;;;;;;;3.75;2.08;;;17.90;99.90;;;;;;5065781;28;20028;-49
2021/08/08 01:02:21;;;;;;;1.88;1.77;;;17.90;99.90;;;;;;5051186;28;20025;-46
2021/08/08 01:04:53;;;;;;;3.90;1.77;;;17.90;99.90;;;;;;5050641;28;20385;-47
2021/08/08 01:07:23;;;;;;;6.22;2.13;;;17.80;99.90;;;;;;5051100;28;20055;-50
2021/08/08 01:09:52;;;;;;;4.35;1.77;;;17.80;99.90;;;;;;5051550;28;20061;-49
2021/08/08 01:12:19;;;;;;;1.88;1.70;;;17.80;99.90;;;;;;5071022;28;20107;-46
2021/08/08 01:14:46;;;;;;;2.35;1.60;;;17.80;99.90;;;;;;5070213;28;20020;-47
2021/08/08 01:17:14;;;;;;;5.30;1.75;;;17.80;99.90;;;;;;5070854;28;20231;-47
2021/08/08 01:19:49;;;;;;;2.13;1.60;;;17.70;99.90;;;;;;5070731;28;20021;-47
2021/08/08 01:22:18;;;;;;;2.70;1.50;;;17.70;99.90;;;;;;5065633;28;20063;-47
2021/08/08 01:24:45;;;;;;;4.15;1.63;;;17.70;99.90;;;;;;5052381;28;20028;-49
2021/08/08 01:27:11;;;;;;;4.88;1.67;;;17.60;99.90;;;;;;5050907;28;20499;-49
2021/08/08 01:29:36;;;;;;;1.92;1.60;;;17.70;99.90;;;;;;5050955;28;20059;-49
2021/08/08 01:32:02;;;;;;;2.53;1.50;;;17.60;99.90;;;;;;5062056;28;20028;-46
2021/08/08 01:34:27;;;;;;;5.50;1.67;;;17.50;99.90;;;;;;5069833;28;20031;-46
2021/08/08 01:36:53;;;;;;;2.35;1.63;;;17.60;99.90;;;;;;5070664;28;20561;-46
2021/08/08 01:39:20;;;;;;;4.20;1.45;;;17.60;99.90;;;;;;5070621;28;20516;-48
2021/08/08 01:41:50;;;;;;;3.20;1.70;;;17.50;99.90;;;;;;5062681;28;20025;-46
2021/08/08 01:44:19;;;;;;;3.25;1.40;;;17.50;99.90;;;;;;5049697;28;20471;-47
2021/08/08 01:46:49;;;;;;;2.33;1.33;;;17.50;99.90;;;;;;5050318;28;20040;-46
2021/08/08 01:49:17;;;;;;;;;;;17.40;99.90;;;;;;5050653;28;20036;-47
2021/08/08 01:51:43;;;;;;;11.40;2.50;;;17.40;99.90;;;;;;5051264;28;19916;-46
2021/08/08 01:54:08;;;;;;;4.70;1.67;;;17.40;99.90;;;;;;5048280;28;20033;-46
2021/08/08 01:56:34;;;;;;;4.05;1.75;;;17.40;99.90;;;;;;5050101;28;20040;-47
2021/08/08 01:59:00;;;;;;;5.07;1.85;;;17.40;99.90;;;;;;5050150;28;20021;-47
2021/08/08 02:01:29;;;;;;;2.42;1.40;;;17.30;99.90;;;;;;5048694;28;20360;-49
2021/08/08 02:03:54;;;;;;;3.67;1.38;;;17.30;99.90;;;;;;5068313;28;20391;-50
2021/08/08 02:06:20;;;;;;;1.73;1.17;;;17.30;99.90;;;;;;5069965;28;20021;-46
2021/08/08 02:08:45;;;;;;;2.05;1.15;;;17.20;99.90;;;;;;5069807;28;20032;-47
2021/08/08 02:11:11;;;;;;;5.10;1.92;;;17.20;99.90;;;;;;5069340;28;20021;-47
2021/08/08 02:13:36;;;;;;;1.10;1.00;;;17.20;99.90;;;;;;5067392;28;20037;-49
2021/08/08 02:16:02;;;;;;;1.42;1.15;;;17.20;99.90;;;;;;5069629;28;20024;-47
2021/08/08 02:18:27;;;;;;;2.40;1.10;;;17.20;99.90;;;;;;5067911;28;20064;-46
2021/08/08 02:20:53;;;;;;;1.17;0.90;;;17.20;99.90;;;;;;5069566;28;20059;-46
2021/08/08 02:23:19;;;;;;;3.63;1.40;;;17.10;99.90;;;;;;5061116;28;20056;-49
2021/08/08 02:25:45;;;;;;;1.92;1.30;;;17.00;99.90;;;;;;5049662;28;20021;-48
2021/08/08 02:28:10;;;;;;;2.90;1.75;;;17.00;99.90;;;;;;5049666;28;20024;-46
2021/08/08 02:30:36;;;;;;;3.85;1.45;;;17.00;99.90;;;;;;5049406;28;20044;-46
2021/08/08 02:33:02;;;;;;;2.20;1.50;;;17.00;99.90;;;;;;5051723;28;20068;-48
2021/08/08 02:35:27;;;;;;;2.67;1.50;;;17.00;99.90;;;;;;5068991;28;20039;-48
2021/08/08 02:37:53;;;;;;;2.42;1.40;;;16.90;99.90;;;;;;5069599;28;20108;-46
2021/08/08 02:40:18;;;;;;;1.77;1.40;;;16.90;99.90;;;;;;5069631;28;20090;-47
2021/08/08 02:42:44;;;;;;;4.03;1.30;;;16.80;99.90;;;;;;5069727;28;20424;-46
2021/08/08 02:45:10;;;;;;;3.38;1.48;;;16.80;99.90;;;;;;5051005;28;20382;-46
2021/08/08 02:47:35;;;;;;;4.70;1.38;;;16.70;99.90;;;;;;5049132;28;20029;-46
2021/08/08 02:50:01;;;;;;;3.05;1.48;;;16.70;99.90;;;;;;5049406;28;20033;-47
2021/08/08 02:52:27;;;;;;;1.65;1.13;;;16.60;99.90;;;;;;5049089;28;20071;-50
2021/08/08 02:54:52;;;;;;;2.13;1.13;;;16.60;99.90;;;;;;5060085;28;20030;-46
2021/08/08 02:57:18;;;;;;;1.85;1.02;;;16.60;99.90;;;;;;5069026;28;20032;-46
2021/08/08 02:59:43;;;;;;;2.55;1.30;;;16.50;99.90;;;;;;5069017;28;20032;-47
2021/08/08 03:02:09;;;;;;;2.15;1.13;;;16.50;99.90;;;;;;5069329;28;20040;-47
2021/08/08 03:04:35;;;;;;;1.75;1.15;;;16.40;99.90;;;;;;5061431;28;20035;-47
2021/08/08 03:07:00;;;;;;;2.53;1.08;;;16.40;99.90;;;;;;5048827;28;20024;-50
2021/08/08 03:09:26;;;;;;;3.63;1.15;;;16.30;99.90;;;;;;5049030;28;20021;-48
2021/08/08 03:11:51;;;;;;;2.95;1.58;;;16.40;99.90;;;;;;5049033;28;20437;-46
2021/08/08 03:14:18;;;;;;;2.95;1.65;;;16.30;99.90;;;;;;5049610;28;20036;-47
2021/08/08 03:16:45;;;;;;;1.85;1.10;;;16.30;99.90;;;;;;5068546;28;20147;-46
2021/08/08 03:19:12;;;;;;;3.17;1.38;;;16.20;99.90;;;;;;5068697;28;20113;-46
2021/08/08 03:21:38;;;;;;;6.43;1.50;;;16.20;99.90;;;;;;5068871;28;20040;-48
2021/08/08 03:24:04;;;;;;;1.88;1.55;;;16.20;99.90;;;;;;5067359;28;20478;-46
2021/08/08 03:26:30;;;;;;;1.35;1.25;;;16.20;99.90;;;;;;5052286;28;20037;-47
2021/08/08 03:28:56;;;;;;;5.13;1.50;;;16.10;99.90;;;;;;5048293;28;20536;-46
2021/08/08 03:31:22;;;;;;;6.70;1.52;;;16.10;99.90;;;;;;5048486;28;20037;-46
2021/08/08 03:33:47;;;;;;;2.63;1.17;;;16.00;99.90;;;;;;5047769;28;20060;-47
2021/08/08 03:36:13;;;;;;;2.80;1.30;;;16.00;99.90;;;;;;5059746;28;20044;-49
2021/08/08 03:38:39;;;;;;;2.35;1.35;;;16.00;99.90;;;;;;5068392;28;20040;-46
2021/08/08 03:41:05;;;;;;;2.28;1.13;;;16.00;99.90;;;;;;5068318;28;20056;-47
2021/08/08 03:43:31;;;;;;;1.48;1.23;;;16.00;99.90;;;;;;5067734;28;20040;-48
2021/08/08 03:45:56;;;;;;;3.22;1.20;;;15.90;99.90;;;;;;5060510;28;20489;-49
2021/08/08 03:48:22;;;;;;;3.42;1.15;;;15.80;99.90;;;;;;5048455;28;20025;-48
2021/08/08 03:50:47;;;;;;;1.60;1.08;;;15.80;99.90;;;;;;5048457;28;20036;-47
2021/08/08 03:53:13;;;;;;;2.88;1.40;;;15.80;99.90;;;;;;5047874;28;20111;-45
2021/08/08 03:55:38;;;;;;;2.10;1.20;;;15.70;99.90;;;;;;5047568;28;20044;-49
2021/08/08 03:58:04;;;;;;;4.15;1.35;;;15.70;99.90;;;;;;5067126;28;20028;-45
2021/08/08 04:00:29;;;;;;;1.65;1.20;;;15.70;99.90;;;;;;5066979;28;20036;-47
2021/08/08 04:02:55;;;;;;;1.63;1.10;;;15.70;99.90;;;;;;5068411;28;20066;-46
2021/08/08 04:05:20;;;;;;;3.50;1.17;;;15.70;99.90;;;;;;5067522;28;20482;-46
2021/08/08 04:07:46;;;;;;;3.83;1.13;;;15.70;99.90;;;;;;5052427;28;20029;-47
2021/08/08 04:10:12;;;;;;;1.55;0.90;;;15.70;99.90;;;;;;5048085;28;20467;-47
2021/08/08 04:12:38;;;;;;;0.95;0.93;;;15.70;99.90;;;;;;5047995;28;20037;-46
2021/08/08 04:15:04;;;;;;;1.02;0.88;;;15.80;99.90;;;;;;5047340;28;20487;-48
2021/08/08 04:17:30;;;;;;;2.53;1.00;;;15.80;99.90;;;;;;5058235;28;20043;-47
2021/08/08 04:19:56;;;;;;;4.40;1.00;;;15.80;99.90;;;;;;5068133;28;20025;-48
2021/08/08 04:22:22;;;;;;;5.30;1.95;;;15.70;99.90;;;;;;5068240;28;20033;-47
2021/08/08 04:24:47;;;;;;;2.35;1.20;;;15.70;99.90;;;;;;5067420;28;20275;-49
2021/08/08 04:27:13;;;;;;;1.35;0.93;;;15.80;99.90;;;;;;5062770;28;20029;-47
2021/08/08 04:29:40;;;;;;;1.67;1.00;;;15.80;99.90;;;;;;5048088;28;20037;-47
2021/08/08 04:32:06;;;;;;;3.22;1.15;;;15.90;99.90;;;;;;5048091;28;20033;-47
2021/08/08 04:34:31;;;;;;;3.70;0.93;;;16.00;99.90;;;;;;5047969;28;20518;-46
2021/08/08 04:36:58;;;;;;;1.63;0.98;;;16.00;99.90;;;;;;5051657;28;20203;-46
2021/08/08 04:39:24;;;;;;;0.88;0.82;;;16.10;99.90;;;;;;5071793;28;20024;-47
2021/08/08 04:41:51;;;;;;;1.52;0.75;;;16.20;99.90;;;;;;5071661;28;20474;-46
2021/08/08 04:44:17;;;;;;;2.28;0.90;;;16.20;99.90;;;;;;5070848;28;20012;-47
2021/08/08 04:46:43;;;;;;;4.03;1.25;;;16.30;99.90;;;;;;5071776;28;20124;-47
2021/08/08 04:49:08;;;;;;;1.20;0.98;;;16.30;99.90;;;;;;5055882;28;20446;-47
2021/08/08 04:51:34;;;;;;;4.07;1.40;;;16.40;99.90;;;;;;5051363;28;20097;-46
2021/08/08 04:53:59;;;;;;;4.15;1.00;;;16.40;99.90;;;;;;5050958;28;20092;-46
2021/08/08 04:56:25;;;;;;;3.38;1.23;;;16.40;99.90;;;;;;5050147;28;20060;-46
2021/08/08 04:58:50;;;;;;;2.10;1.25;;;16.50;99.90;;;;;;5061118;28;20028;-47
2021/08/08 05:01:15;;;;;;;1.27;1.00;;;16.60;99.90;;;;;;5069936;28;20025;-45
2021/08/08 05:03:41;;;;;;;2.90;1.00;;;16.60;99.90;;;;;;5070427;28;20020;-47
2021/08/08 05:06:06;;;;;;;2.75;1.13;;;16.60;99.90;;;;;;5071000;28;20025;-45
2021/08/08 05:08:32;;;;;;;1.65;1.00;;;16.60;99.90;;;;;;5066637;28;20364;-46
2021/08/08 05:10:57;;;;;;;1.33;0.93;;;16.70;99.90;;;;;;5050926;28;20028;-46
2021/08/08 05:13:27;;;;;;;2.55;1.05;;;16.80;99.90;;;;;;5050095;28;20564;-47
2021/08/08 05:15:53;;;;;;;4.32;0.98;;;16.90;99.90;;;;;;5050962;28;20024;-49
2021/08/08 05:18:19;;;;;;;1.10;0.85;;;16.90;99.90;;;;;;5051075;28;20391;-48
2021/08/08 05:20:44;;;;;;;3.33;0.80;;;16.80;99.90;;;;;;5070788;28;20068;-47
2021/08/08 05:23:10;;;;;;;0.88;0.80;;;16.80;99.90;;;;;;5070974;28;20039;-47
2021/08/08 05:25:35;;;;;;;1.48;0.93;;;16.80;99.90;;;;;;5070816;28;20414;-46
2021/08/08 05:28:01;;;;;;;3.85;1.17;;;16.80;99.90;;;;;;5070777;28;20020;-47
2021/08/08 05:30:26;;;;;;;2.00;1.00;;;16.90;99.90;;;;;;5055931;28;20438;-45
2021/08/08 05:32:52;;;;;;;1.55;1.15;;;16.90;99.90;;;;;;5050595;28;20033;-50
2021/08/08 05:35:17;;;;;;;4.75;1.13;;;17.10;99.90;;;;;;5049835;28;20074;-49
2021/08/08 05:37:43;;;;;;;2.10;1.20;;;17.20;99.90;;;;;;5050627;28;20218;-47
2021/08/08 05:40:09;;;;;;;3.65;1.23;;;17.30;99.90;;;;;;5059126;28;20056;-48
2021/08/08 05:42:35;;;;;;;1.67;1.02;;;17.40;99.90;;;;;;5070348;28;20024;-48
2021/08/08 05:45:02;;;;;;;3.17;1.40;;;17.50;99.90;;;;;;5069915;28;20127;-49
2021/08/08 05:47:27;;;;;;;3.15;1.20;;;17.50;99.90;;;;;;5069799;28;20027;-47
2021/08/08 05:49:52;;;;;;;1.95;1.10;;;17.60;99.90;;;;;;5066081;28;20028;-48
2021/08/08 05:52:18;;;;;;;2.13;1.27;;;17.60;99.90;;;;;;5048826;28;20044;-48
2021/08/08 05:54:43;;;;;;;2.30;1.02;;;17.60;99.90;;;;;;5049495;28;20029;-47
2021/08/08 05:57:09;;;;;;;2.17;1.20;;;17.50;99.90;;;;;;5050493;28;20036;-47
2021/08/08 05:59:34;;;;;;;2.33;1.60;;;17.50;99.90;;;;;;5050060;28;20439;-49
2021/08/08 06:02:00;;;;;;;3.17;1.30;;;17.50;99.90;;;;;;5068510;28;20051;-49
2021/08/08 06:04:25;;;;;;;1.85;1.40;;;17.50;99.90;;;;;;5069161;28;20028;-48
2021/08/08 06:06:51;;;;;;;1.42;1.33;;;17.50;99.90;;;;;;5070209;28;20390;-47
2021/08/08 06:09:17;;;;;;;3.60;1.60;;;17.60;99.90;;;;;;5070285;28;20198;-48
2021/08/08 06:11:42;;;;;;;3.25;1.42;;;17.60;99.90;;;;;;5056129;28;20025;-48
2021/08/08 06:14:08;;;;;;;3.40;1.60;;;17.60;99.90;;;;;;5049376;28;20057;-48
2021/08/08 06:16:34;;;;;;;4.80;1.40;;;17.70;99.90;;;;;;5049629;28;20032;-48
2021/08/08 06:18:59;;;;;;;3.90;1.50;;;17.70;99.90;;;;;;5049737;28;20402;-48
2021/08/08 06:21:25;;;;;;;2.45;1.88;;;17.70;99.90;;;;;;5057909;28;20367;-47
2021/08/08 06:23:50;;;;;;;2.83;1.50;;;17.80;99.90;;;;;;5069013;28;20024;-48
2021/08/08 06:26:16;;;;;;;4.25;1.60;;;17.80;99.90;;;;;;5068128;28;20112;-50
2021/08/08 06:28:41;;;;;;;1.88;1.65;;;17.90;99.90;;;;;;5069485;28;20081;-50
2021/08/08 06:31:07;;;;;;;4.78;1.60;;;18.00;99.90;;;;;;5068064;28;20060;-55
2021/08/08 06:33:32;;;;;;;3.60;1.45;;;18.10;99.90;;;;;;5068994;28;20290;-48
2021/08/08 06:35:58;;;;;;;3.20;1.52;;;18.20;99.90;;;;;;5069693;28;20359;-47
2021/08/08 06:38:23;;;;;;;4.47;1.50;;;18.10;99.90;;;;;;5069424;28;20086;-46
2021/08/08 06:40:49;;;;;;;2.92;1.80;;;18.30;99.90;;;;;;5069118;28;20082;-47
2021/08/08 06:43:14;;;;;;;4.95;1.52;;;18.30;99.90;;;;;;5052385;28;20398;-46
2021/08/08 06:45:40;;;;;;;3.33;1.55;;;18.30;99.90;;;;;;5049013;28;20052;-46
2021/08/08 06:48:06;;;;;;;3.22;1.67;;;18.30;99.90;;;;;;5049273;28;20021;-46
2021/08/08 06:50:31;;;;;;;4.05;1.58;;;18.40;99.90;;;;;;5049057;28;20037;-47
2021/08/08 06:52:58;;;;;;;4.40;1.75;;;18.40;99.90;;;;;;5049348;28;20036;-48
2021/08/08 06:55:24;;;;;;;2.03;1.48;;;18.50;99.90;;;;;;5048255;28;20108;-47
2021/08/08 06:57:49;;;;;;;3.55;1.88;;;18.60;99.90;;;;;;5048947;28;20424;-49
2021/08/08 07:00:15;;;;;;;4.55;1.65;;;18.70;99.90;;;;;;5048809;28;20048;-47
2021/08/08 07:02:41;;;;;;;2.47;1.58;;;18.60;99.90;;;;;;5054359;28;20436;-48
2021/08/08 07:05:07;;;;;;;3.20;1.92;;;18.70;99.90;;;;;;5068494;28;20028;-49
2021/08/08 07:07:32;;;;;;;3.45;1.73;;;18.80;99.90;;;;;;5067396;28;20489;-49
2021/08/08 07:09:58;;;;;;;2.50;1.52;;;18.80;99.90;;;;;;5068616;28;20032;-49
2021/08/08 07:12:24;;;;;;;3.53;1.83;;;18.90;99.90;;;;;;5068116;28;20044;-49
2021/08/08 07:14:49;;;;;;;8.45;2.45;;;18.80;99.90;;;;;;5067986;28;20038;-49
2021/08/08 07:17:15;;;;;;;4.55;1.80;;;18.70;99.90;;;;;;5068709;28;20025;-50
2021/08/08 07:19:41;;;;;;;4.97;2.00;;;18.80;99.90;;;;;;5068529;28;20039;-47
2021/08/08 07:22:07;;;;;;;1.92;1.63;;;19.00;99.90;;;;;;5068556;28;20025;-47
2021/08/08 07:24:32;;;;;;;3.15;1.90;;;19.00;99.90;;;;;;5052323;28;20029;-48
2021/08/08 07:26:58;;;;;;;8.18;2.35;;;19.10;99.90;;;;;;5048495;28;20049;-49
2021/08/08 07:29:23;;;;;;;2.33;1.77;;;19.30;99.90;;;;;;5048458;28;20040;-46
2021/08/08 07:31:49;;;;;;;7.78;2.20;;;19.40;99.90;;;;;;5048646;28;20549;-48
2021/08/08 07:34:15;;;;;;;3.00;1.63;;;19.50;99.90;;;;;;5057767;28;20393;-47
2021/08/08 07:36:40;;;;;;;5.43;2.00;;;19.50;99.90;;;;;;5068775;28;20482;-48
2021/08/08 07:39:06;;;;;;;3.45;1.80;;;19.60;99.90;;;;;;5068601;28;20081;-47
2021/08/08 07:41:32;;;;;;;2.97;1.50;;;19.60;99.90;;;;;;5068637;28;20225;-48
2021/08/08 07:43:57;;;;;;;2.63;1.80;;;19.60;99.70;;;;;;5066157;28;20031;-47
2021/08/08 07:46:23;;;;;;;3.60;1.50;;;19.50;99.50;;;;;;5068465;28;20032;-48
2021/08/08 07:48:50;;;;;;;2.92;1.90;;;19.60;99.80;;;;;;5068313;28;20033;-48
2021/08/08 07:51:16;;;;;;;3.75;1.75;;;19.70;98.90;;;;;;5068419;28;20401;-49
2021/08/08 07:53:41;;;;;;;4.40;1.92;;;19.60;98.80;;;;;;5067775;28;20036;-47
2021/08/08 07:56:07;;;;;;;10.75;2.15;;;19.40;98.70;;;;;;5049684;28;20052;-47
2021/08/08 07:58:32;;;;;;;5.38;1.70;;;19.40;98.80;;;;;;5048502;28;20017;-47
2021/08/08 08:00:58;;;;;;;6.10;1.92;;;19.50;98.00;;;;;;5048333;28;20021;-46
2021/08/08 08:03:24;;;;;;;5.55;1.92;;;19.80;98.10;;;;;;5047502;28;20075;-47
2021/08/08 08:05:49;;;;;;;4.45;2.20;;;20.10;97.20;;;;;;5061169;28;20025;-47
2021/08/08 08:08:15;;;;;;;4.65;1.95;;;20.30;96.40;;;;;;5068078;28;20052;-47
2021/08/08 08:10:40;;;;;;;4.07;1.63;;;20.40;96.00;;;;;;5070754;28;20024;-47
2021/08/08 08:13:06;;;;;;;6.80;1.98;;;20.70;94.90;;;;;;5071914;28;20499;-47
2021/08/08 08:15:31;;;;;;;3.35;1.70;;;20.80;95.30;;;;;;5063030;28;20478;-50
2021/08/08 08:17:57;;;;;;;5.35;1.92;;;20.90;94.40;;;;;;5052343;28;20040;-50
2021/08/08 08:20:23;;;;;;;3.63;1.80;;;20.90;93.60;;;;;;5052078;28;20029;-47
2021/08/08 08:22:49;;;;;;;3.90;2.28;;;21.10;93.40;;;;;;5052037;28;20490;-49
2021/08/08 08:25:17;;;;;;;4.53;1.77;;;21.50;92.20;;;;;;5053895;28;20113;-47
2021/08/08 08:27:43;;;;;;;3.60;1.98;;;21.50;91.70;;;;;;5071889;28;20021;-49
2021/08/08 08:30:09;;;;;;;3.78;1.83;;;21.40;91.90;;;;;;5071843;28;20585;-51
2021/08/08 08:32:35;;;;;;;3.08;2.00;;;22.20;90.90;;;;;;5071711;28;20097;-48
2021/08/08 08:35:04;;;;;;;3.83;1.90;;;22.60;87.30;;;;;;5071225;28;20029;-46
2021/08/08 08:37:30;;;;;;;3.10;1.55;;;22.60;87.60;;;;;;5055984;28;20564;-50
2021/08/08 08:39:56;;;;;;;5.82;1.80;;;23.10;86.30;;;;;;5051766;28;20033;-47
2021/08/08 08:42:24;;;;;;;2.90;2.05;;;23.30;82.70;;;;;;5051738;28;20024;-48
2021/08/08 08:44:52;;;;;;;3.10;1.67;;;24.10;80.90;;;;;;5054038;28;20029;-50
2021/08/08 08:47:18;;;;;;;3.05;1.65;;;24.70;78.10;;;;;;5060010;28;20031;-47
2021/08/08 08:49:48;;;;;;;4.25;1.50;;;25.30;72.90;;;;;;5061969;28;20550;-49
2021/08/08 08:52:20;;;;;;;3.30;1.40;;;25.80;69.90;;;;;;5051615;28;20041;-48
2021/08/08 08:54:46;;;;;;;3.92;1.38;;;25.90;68.40;;;;;;5050678;28;20048;-48
2021/08/08 08:57:13;;;;;;;4.13;1.40;;;25.70;67.20;;;;;;5061260;28;20041;-48
2021/08/08 08:59:39;;;;;;;5.80;1.60;;;24.20;70.60;;;;;;5070679;28;20033;-50
2021/08/08 09:02:05;;;;;;;2.42;1.42;;;23.60;72.20;;;;;;5071184;28;20121;-47
2021/08/08 09:04:30;;;;;;;4.85;2.30;;;23.50;72.10;;;;;;5065950;28;20453;-48
2021/08/08 09:06:56;;;;;;;4.53;1.63;;;24.10;70.40;;;;;;5060582;28;20196;-47
2021/08/08 09:09:22;;;;;;;4.57;1.50;;;25.30;67.80;;;;;;5060072;28;20045;-48
2021/08/08 09:11:50;;;;;;;8.27;3.83;;;26.50;65.20;;;;;;5061125;28;20055;-50
2021/08/08 09:14:15;;;;;;;3.63;1.65;;;28.10;60.90;;;;;;5060200;28;20028;-46
2021/08/08 09:16:44;;;;;;;4.28;1.60;;;28.60;57.00;;;;;;5059528;28;20499;-47
2021/08/08 09:19:21;;;;;;;4.55;1.30;;;26.50;58.80;;;;;;5059910;28;20063;-45
2021/08/08 09:21:48;;;;;;;5.20;1.52;;;25.80;61.40;;;;;;5058227;28;20025;-48
2021/08/08 09:24:25;;;;;;;5.25;1.45;;;24.70;63.60;;;;;;5052036;28;20288;-48
2021/08/08 09:27:00;;;;;;;3.50;1.52;;;24.70;64.20;;;;;;5050815;28;20544;-48
2021/08/08 09:29:26;;;;;;;6.05;1.42;;;25.90;63.90;;;;;;5050710;28;20033;-46
2021/08/08 09:31:51;;;;;;;5.80;1.45;;;26.80;60.60;;;;;;5050486;28;20079;-47
2021/08/08 09:34:29;;;;;;;3.53;1.10;;;27.20;57.20;;;;;;5050057;28;20112;-46
2021/08/08 09:36:57;;;;;;;3.25;1.67;;;27.90;57.00;;;;;;5050424;28;20033;-46
2021/08/08 09:39:31;;;;;;;1.90;1.00;;;28.40;54.90;;;;;;5066355;28;20033;-46
2021/08/08 09:42:27;;;;;;;1.90;1.00;;;28.80;53.60;;;;;;5070242;28;20438;-47
2021/08/08 09:44:57;;;;;;;3.92;1.20;;;29.20;53.50;;;;;;5060244;28;20112;-49
2021/08/08 09:47:36;;;;;;;2.97;1.20;;;29.00;52.30;;;;;;5070224;28;20017;-48
2021/08/08 09:50:05;;;;;;;5.43;1.40;;;29.00;53.60;;;;;;5050809;28;20091;-49
2021/08/08 09:52:35;;;;;;;6.35;1.52;;;28.50;53.00;;;;;;5050107;28;20040;-50
2021/08/08 09:55:02;;;;;;;4.28;1.52;;;28.70;53.70;;;;;;5049392;28;20093;-49
2021/08/08 09:57:40;;;;;;;1.60;1.30;;;28.90;53.40;;;;;;5050305;28;20091;-49
2021/08/08 10:00:06;;;;;;;3.47;1.67;;;29.20;51.50;;;;;;5067018;28;20115;-47
2021/08/08 10:02:32;;;;;;;2.83;1.13;;;28.90;51.70;;;;;;5069908;28;20053;-47
2021/08/08 10:04:58;;;;;;;2.17;1.35;;;29.80;50.80;;;;;;5069238;28;20024;-49
2021/08/08 10:07:27;;;;;;;3.50;1.50;;;29.40;51.80;;;;;;5069883;28;20066;-48
2021/08/08 10:09:56;;;;;;;4.80;1.35;;;28.70;52.30;;;;;;5057338;28;20044;-50
2021/08/08 10:12:32;;;;;;;3.63;1.60;;;28.50;51.80;;;;;;5049715;28;20498;-46
2021/08/08 10:14:59;;;;;;;1.45;1.00;;;28.60;53.20;;;;;;5065770;28;20041;-46
2021/08/08 10:17:26;;;;;;;5.10;1.60;;;27.60;52.80;;;;;;5069769;28;20275;-47
2021/08/08 10:19:53;;;;;;;5.47;1.70;;;26.80;53.60;;;;;;5060327;28;20083;-50
2021/08/08 10:22:23;;;;;;;3.83;1.65;;;26.10;55.90;;;;;;5049057;28;20697;-47
2021/08/08 10:24:50;;;;;;;3.00;2.00;;;25.70;57.50;;;;;;5049002;28;20384;-50
2021/08/08 10:27:21;;;;;;;3.95;1.20;;;25.20;57.70;;;;;;5049538;28;20040;-49
2021/08/08 10:29:48;;;;;;;4.60;1.67;;;24.60;59.40;;;;;;5054934;28;20025;-46
2021/08/08 10:32:14;;;;;;;2.47;1.60;;;23.90;60.00;;;;;;5067604;28;20040;-50
2021/08/08 10:34:40;;;;;;;6.47;1.77;;;23.30;62.30;;;;;;5068962;28;20033;-48
2021/08/08 10:37:13;;;;;;;4.82;1.75;;;23.40;64.10;;;;;;5069430;28;20040;-47
2021/08/08 10:39:46;;;;;;;3.60;1.80;;;23.10;63.50;;;;;;5067364;28;20031;-48
2021/08/08 10:42:12;;;;;;;4.20;1.70;;;23.20;64.50;;;;;;5049326;28;20123;-50
2021/08/08 10:44:47;;;;;;;3.92;1.63;;;23.20;64.30;;;;;;5048467;28;20033;-47
2021/08/08 10:47:27;;;;;;;5.38;1.73;;;22.70;65.30;;;;;;5049296;28;20025;-47
2021/08/08 10:49:53;;;;;;;4.18;1.48;;;22.10;66.80;;;;;;5049424;28;20032;-47
2021/08/08 10:52:19;;;;;;;1.92;1.50;;;21.90;67.30;;;;;;5049506;28;20032;-46
2021/08/08 10:54:46;;;;;;;1.42;1.10;;;21.80;67.60;;;;;;5048773;28;20078;-48
2021/08/08 10:57:17;;;;;;;4.60;1.80;;;21.70;68.00;;;;;;5049268;28;20036;-47
2021/08/08 10:59:44;;;;;;;3.53;2.55;;;21.30;68.60;;;;;;5049533;28;20021;-48
2021/08/08 11:02:12;;;;;;;5.13;1.70;;;21.20;69.40;;;;;;5064460;28;20059;-50
2021/08/08 11:04:37;;;;;;;7.63;1.77;;;21.20;70.80;;;;;;5068349;28;20021;-50
2021/08/08 11:07:04;;;;;;;5.60;2.00;;;21.20;70.80;;;;;;5069230;28;20107;-47
2021/08/08 11:09:31;;;;;;;7.55;2.10;;;21.10;71.10;;;;;;5068972;28;20036;-49
2021/08/08 11:11:57;;;;;;;6.57;1.67;;;21.20;71.40;;;;;;5058110;28;20029;-48
2021/08/08 11:14:22;;;;;;;6.45;1.70;;;21.60;71.90;;;;;;5048256;28;20021;-47
2021/08/08 11:17:02;;;;;;;4.10;1.85;;;22.00;70.00;;;;;;5047528;28;20032;-47
2021/08/08 11:19:38;;;;;;;8.77;2.08;;;22.60;69.70;;;;;;5048696;28;20057;-46
2021/08/08 11:22:16;;;;;;;5.75;2.17;;;23.10;67.30;;;;;;5057144;28;20039;-46
2021/08/08 11:24:54;;;;;;;6.10;1.70;;;23.50;66.10;;;;;;5068002;28;20021;-48
2021/08/08 11:27:32;;;;;;;3.17;1.90;;;23.80;65.50;;;;;;5068594;28;20016;-46
2021/08/08 11:29:58;;;;;;;5.50;3.67;;;24.40;65.50;;;;;;5067102;28;20170;-47
2021/08/08 11:32:28;;;;;;;3.42;1.58;;;25.30;61.30;;;;;;5059771;28;20116;-48
2021/08/08 11:35:14;;;;;;;3.90;1.20;;;27.20;59.10;;;;;;5046361;28;20447;-46
2021/08/08 11:37:46;;;;;;;3.28;2.22;;;28.20;56.20;;;;;;5048552;28;20475;-47
2021/08/08 11:40:19;;;;;;;3.53;1.75;;;29.10;54.70;;;;;;5048371;28;20021;-46
2021/08/08 11:42:45;;;;;;;2.17;1.70;;;28.40;54.30;;;;;;5056587;28;20559;-47
2021/08/08 11:45:11;;;;;;;3.63;1.42;;;27.90;55.30;;;;;;5066956;28;20017;-46
2021/08/08 11:47:37;;;;;;;3.20;1.55;;;27.60;55.00;;;;;;5068804;28;20484;-48
2021/08/08 11:50:05;;;;;;;3.85;1.60;;;28.20;54.40;;;;;;5068510;28;20504;-47
2021/08/08 11:52:31;;;;;;;5.28;1.80;;;29.40;54.30;;;;;;5065810;28;20020;-47
2021/08/08 11:55:03;;;;;;;4.35;1.63;;;28.80;53.10;;;;;;5047399;28;20520;-49
2021/08/08 11:57:30;;;;;;;8.15;1.70;;;28.60;54.90;;;;;;5048156;28;20043;-48
2021/08/08 11:59:57;;;;;;;3.05;1.25;;;28.60;53.90;;;;;;5048224;28;20367;-46
2021/08/08 12:02:24;;;;;;;2.05;1.15;;;27.70;53.80;;;;;;5046861;28;20570;-47
2021/08/08 12:04:54;;;;;;;2.50;1.20;;;26.70;55.20;;;;;;5066482;28;20028;-45
2021/08/08 12:07:28;;;;;;;3.05;1.30;;;26.30;56.80;;;;;;5068253;28;20206;-46
2021/08/08 12:09:54;;;;;;;2.72;1.30;;;25.40;59.20;;;;;;5068138;28;20020;-46
2021/08/08 12:12:20;;;;;;;2.80;1.23;;;25.20;59.10;;;;;;5068196;28;20040;-48
2021/08/08 12:14:55;;;;;;;3.78;1.50;;;25.70;57.30;;;;;;5050671;28;20078;-47
2021/08/08 12:17:22;;;;;;;3.17;1.40;;;25.50;57.00;;;;;;5048410;28;20025;-48
2021/08/08 12:19:50;;;;;;;3.80;1.42;;;25.70;58.40;;;;;;5048194;28;20033;-48
2021/08/08 12:22:18;;;;;;;3.50;1.70;;;25.70;58.40;;;;;;5048519;28;20022;-47
2021/08/08 12:24:50;;;;;;;5.13;1.65;;;25.50;58.70;;;;;;5059546;28;20028;-47
2021/08/08 12:27:39;;;;;;;5.47;1.60;;;25.10;58.90;;;;;;5068080;28;20033;-50
2021/08/08 12:30:10;;;;;;;3.97;1.92;;;24.70;60.50;;;;;;5067977;28;20036;-50
2021/08/08 12:32:38;;;;;;;7.70;1.95;;;24.20;61.30;;;;;;5068077;28;20021;-47
2021/08/08 12:35:06;;;;;;;4.55;1.73;;;24.10;61.50;;;;;;5054629;28;20061;-49
2021/08/08 12:37:31;;;;;;;6.40;1.73;;;23.80;62.30;;;;;;5047822;28;20503;-46
2021/08/08 12:40:11;;;;;;;3.65;1.50;;;23.60;61.90;;;;;;5047786;28;20019;-47
2021/08/08 12:42:37;;;;;;;4.38;1.83;;;22.80;63.00;;;;;;5047800;28;20032;-46
2021/08/08 12:45:08;;;;;;;2.97;1.73;;;22.50;63.80;;;;;;5056017;28;20020;-47
2021/08/08 12:47:35;;;;;;;2.83;1.35;;;22.20;64.70;;;;;;5066507;28;20481;-47